sensor_id;sensor_type;location;lat;lon;timestamp;P1;durP1;ratioP1;P2;durP2;ratioP2
24631;SDS011;59977;48.782;9.190;2022-07-04T15:55:25;8.00;;;1.55;;
24631;SDS011;59977;48.782;9.190;2022-07-04T15:57:51;8.43;;;1.60;;
24631;SDS011;59977;48.782;9.190;2022-07-04T16:00:17;5.25;;;1.83;;
24631;SDS011;59977;48.782;9.190;2022-07-04T16:02:43;4.40;;;1.52;;
24631;SDS011;59977;48.782;9.190;2022-07-04T16:05:09;5.13;;;1.60;;
24631;SDS011;59977;48.782;9.190;2022-07-04T16:07:36;6.22;;;1.63;;
24631;SDS011;59977;48.782;9.190;2022-07-04T16:10:02;3.30;;;1.58;;
24631;SDS011;59977;48.782;9.190;2022-07-04T16:12:29;3.63;;;1.73;;
24631;SDS011;59977;48.782;9.190;2022-07-04T16:14:55;4.80;;;1.40;;
24631;SDS011;59977;48.782;9.190;2022-07-04T16:17:20;6.47;;;1.63;;
24631;SDS011;59977;48.782;9.190;2022-07-04T16:19:46;2.72;;;1.40;;
24631;SDS011;59977;48.782;9.190;2022-07-04T16:22:11;2.60;;;1.50;;
24631;SDS011;59977;48.782;9.190;2022-07-04T16:24:37;4.57;;;1.35;;
24631;SDS011;59977;48.782;9.190;2022-07-04T16:27:03;10.65;;;1.67;;
24631;SDS011;59977;48.782;9.190;2022-07-04T16:29:28;15.95;;;2.60;;
24631;SDS011;59977;48.782;9.190;2022-07-04T16:31:54;10.10;;;1.92;;
24631;SDS011;59977;48.782;9.190;2022-07-04T16:34:21;5.65;;;1.30;;
24631;SDS011;59977;48.782;9.190;2022-07-04T16:36:46;8.23;;;1.40;;
24631;SDS011;59977;48.782;9.190;2022-07-04T16:39:12;3.80;;;1.27;;
24631;SDS011;59977;48.782;9.190;2022-07-04T16:41:37;3.65;;;1.30;;
24631;SDS011;59977;48.782;9.190;2022-07-04T16:44:03;4.30;;;1.40;;
24631;SDS011;59977;48.782;9.190;2022-07-04T16:46:29;7.28;;;1.40;;
24631;SDS011;59977;48.782;9.190;2022-07-04T16:48:54;5.13;;;1.10;;
24631;SDS011;59977;48.782;9.190;2022-07-04T16:51:20;6.93;;;1.20;;
24631;SDS011;59977;48.782;9.190;2022-07-04T16:53:46;6.38;;;1.30;;
24631;SDS011;59977;48.782;9.190;2022-07-04T16:56:11;3.78;;;1.40;;
24631;SDS011;59977;48.782;9.190;2022-07-04T16:58:37;2.00;;;1.30;;
24631;SDS011;59977;48.782;9.190;2022-07-04T17:01:02;3.42;;;1.23;;
24631;SDS011;59977;48.782;9.190;2022-07-04T17:03:28;4.53;;;1.50;;
24631;SDS011;59977;48.782;9.190;2022-07-04T17:05:54;3.33;;;1.20;;
24631;SDS011;59977;48.782;9.190;2022-07-04T17:08:19;3.92;;;1.40;;
24631;SDS011;59977;48.782;9.190;2022-07-04T17:10:45;7.18;;;1.50;;
24631;SDS011;59977;48.782;9.190;2022-07-04T17:13:11;1.80;;;1.20;;
24631;SDS011;59977;48.782;9.190;2022-07-04T17:15:37;2.55;;;1.20;;
24631;SDS011;59977;48.782;9.190;2022-07-04T17:18:03;1.95;;;1.13;;
24631;SDS011;59977;48.782;9.190;2022-07-04T17:20:30;2.20;;;1.25;;
24631;SDS011;59977;48.782;9.190;2022-07-04T17:22:55;3.50;;;1.20;;
24631;SDS011;59977;48.782;9.190;2022-07-04T17:25:21;4.50;;;1.00;;
24631;SDS011;59977;48.782;9.190;2022-07-04T17:27:47;2.05;;;1.20;;
24631;SDS011;59977;48.782;9.190;2022-07-04T17:30:13;3.78;;;1.20;;
24631;SDS011;59977;48.782;9.190;2022-07-04T17:32:39;4.85;;;1.10;;
24631;SDS011;59977;48.782;9.190;2022-07-04T17:35:05;1.23;;;1.10;;
24631;SDS011;59977;48.782;9.190;2022-07-04T17:37:32;5.47;;;1.10;;
24631;SDS011;59977;48.782;9.190;2022-07-04T17:39:59;4.13;;;1.42;;
24631;SDS011;59977;48.782;9.190;2022-07-04T17:42:25;3.38;;;1.20;;
24631;SDS011;59977;48.782;9.190;2022-07-04T17:44:50;2.85;;;1.20;;
24631;SDS011;59977;48.782;9.190;2022-07-04T17:47:16;1.80;;;1.30;;
24631;SDS011;59977;48.782;9.190;2022-07-04T17:49:42;4.75;;;1.55;;
24631;SDS011;59977;48.782;9.190;2022-07-04T17:52:11;4.30;;;2.08;;
24631;SDS011;59977;48.782;9.190;2022-07-04T17:54:37;6.55;;;1.77;;
24631;SDS011;59977;48.782;9.190;2022-07-04T17:57:02;6.05;;;1.60;;
24631;SDS011;59977;48.782;9.190;2022-07-04T17:59:28;4.15;;;1.60;;
24631;SDS011;59977;48.782;9.190;2022-07-04T18:01:55;5.40;;;1.58;;
24631;SDS011;59977;48.782;9.190;2022-07-04T18:04:21;4.38;;;1.42;;
24631;SDS011;59977;48.782;9.190;2022-07-04T18:06:46;4.28;;;1.38;;
24631;SDS011;59977;48.782;9.190;2022-07-04T18:09:12;6.28;;;1.60;;
24631;SDS011;59977;48.782;9.190;2022-07-04T18:11:38;3.30;;;1.35;;
24631;SDS011;59977;48.782;9.190;2022-07-04T18:14:04;2.50;;;1.20;;
24631;SDS011;59977;48.782;9.190;2022-07-04T18:16:29;2.33;;;1.40;;
24631;SDS011;59977;48.782;9.190;2022-07-04T18:18:55;3.38;;;1.30;;
24631;SDS011;59977;48.782;9.190;2022-07-04T18:21:21;3.05;;;1.50;;
24631;SDS011;59977;48.782;9.190;2022-07-04T18:23:47;2.80;;;1.27;;
24631;SDS011;59977;48.782;9.190;2022-07-04T18:26:13;5.75;;;1.30;;
24631;SDS011;59977;48.782;9.190;2022-07-04T18:28:40;1.85;;;1.23;;
24631;SDS011;59977;48.782;9.190;2022-07-04T18:31:07;4.18;;;1.30;;
24631;SDS011;59977;48.782;9.190;2022-07-04T18:33:37;4.10;;;1.40;;
24631;SDS011;59977;48.782;9.190;2022-07-04T18:36:03;5.70;;;1.30;;
24631;SDS011;59977;48.782;9.190;2022-07-04T18:38:30;4.00;;;1.20;;
24631;SDS011;59977;48.782;9.190;2022-07-04T18:40:55;3.30;;;1.30;;
24631;SDS011;59977;48.782;9.190;2022-07-04T18:43:40;11.10;;;1.70;;
24631;SDS011;59977;48.782;9.190;2022-07-04T18:46:06;3.17;;;1.63;;
24631;SDS011;59977;48.782;9.190;2022-07-04T18:48:32;6.82;;;1.90;;
24631;SDS011;59977;48.782;9.190;2022-07-04T18:51:00;3.08;;;1.40;;
24631;SDS011;59977;48.782;9.190;2022-07-04T18:53:26;3.13;;;1.40;;
24631;SDS011;59977;48.782;9.190;2022-07-04T18:55:52;5.63;;;1.92;;
24631;SDS011;59977;48.782;9.190;2022-07-04T18:58:18;6.53;;;1.60;;
24631;SDS011;59977;48.782;9.190;2022-07-04T19:00:44;5.18;;;1.58;;
24631;SDS011;59977;48.782;9.190;2022-07-04T19:03:10;6.78;;;1.70;;
24631;SDS011;59977;48.782;9.190;2022-07-04T19:05:37;2.90;;;1.55;;
24631;SDS011;59977;48.782;9.190;2022-07-04T19:08:07;11.07;;;2.22;;
24631;SDS011;59977;48.782;9.190;2022-07-04T19:10:34;5.57;;;2.00;;
24631;SDS011;59977;48.782;9.190;2022-07-04T19:13:01;4.18;;;1.50;;
24631;SDS011;59977;48.782;9.190;2022-07-04T19:15:27;4.15;;;1.70;;
24631;SDS011;59977;48.782;9.190;2022-07-04T19:17:53;5.75;;;2.10;;
24631;SDS011;59977;48.782;9.190;2022-07-04T19:20:19;5.10;;;1.48;;
24631;SDS011;59977;48.782;9.190;2022-07-04T19:22:46;4.88;;;1.42;;
24631;SDS011;59977;48.782;9.190;2022-07-04T19:25:12;3.45;;;1.30;;
24631;SDS011;59977;48.782;9.190;2022-07-04T19:27:38;7.72;;;1.05;;
24631;SDS011;59977;48.782;9.190;2022-07-04T19:30:05;5.22;;;1.38;;
24631;SDS011;59977;48.782;9.190;2022-07-04T19:32:32;11.77;;;1.55;;
24631;SDS011;59977;48.782;9.190;2022-07-04T19:35:02;9.73;;;1.52;;
24631;SDS011;59977;48.782;9.190;2022-07-04T19:37:28;3.00;;;1.40;;
24631;SDS011;59977;48.782;9.190;2022-07-04T19:39:54;3.30;;;1.55;;
24631;SDS011;59977;48.782;9.190;2022-07-04T19:42:20;5.25;;;1.42;;
24631;SDS011;59977;48.782;9.190;2022-07-04T19:44:51;5.18;;;1.40;;
24631;SDS011;59977;48.782;9.190;2022-07-04T19:47:18;4.00;;;1.23;;
24631;SDS011;59977;48.782;9.190;2022-07-04T19:49:47;6.53;;;1.40;;
24631;SDS011;59977;48.782;9.190;2022-07-04T19:52:13;4.57;;;1.40;;
24631;SDS011;59977;48.782;9.190;2022-07-04T19:55:05;6.43;;;1.65;;
24631;SDS011;59977;48.782;9.190;2022-07-04T19:57:41;7.97;;;1.60;;
24631;SDS011;59977;48.782;9.190;2022-07-04T20:00:10;4.85;;;1.45;;
24631;SDS011;59977;48.782;9.190;2022-07-04T20:02:38;5.18;;;1.55;;
24631;SDS011;59977;48.782;9.190;2022-07-04T20:05:05;5.47;;;1.85;;
24631;SDS011;59977;48.782;9.190;2022-07-04T20:07:35;10.57;;;2.30;;
24631;SDS011;59977;48.782;9.190;2022-07-04T20:10:06;9.00;;;2.28;;
24631;SDS011;59977;48.782;9.190;2022-07-04T20:12:33;6.80;;;1.85;;
24631;SDS011;59977;48.782;9.190;2022-07-04T20:14:58;4.80;;;1.70;;
24631;SDS011;59977;48.782;9.190;2022-07-04T20:17:26;4.18;;;1.70;;
24631;SDS011;59977;48.782;9.190;2022-07-04T20:19:53;3.72;;;1.70;;
24631;SDS011;59977;48.782;9.190;2022-07-04T20:22:21;5.78;;;2.03;;
24631;SDS011;59977;48.782;9.190;2022-07-04T20:24:48;6.38;;;1.92;;
24631;SDS011;59977;48.782;9.190;2022-07-04T20:27:17;5.43;;;1.65;;
24631;SDS011;59977;48.782;9.190;2022-07-04T20:29:44;5.88;;;2.33;;
24631;SDS011;59977;48.782;9.190;2022-07-04T20:32:10;4.43;;;1.98;;
24631;SDS011;59977;48.782;9.190;2022-07-04T20:34:36;4.85;;;2.08;;
24631;SDS011;59977;48.782;9.190;2022-07-04T20:37:03;5.63;;;1.98;;
24631;SDS011;59977;48.782;9.190;2022-07-04T20:39:29;6.65;;;1.65;;
24631;SDS011;59977;48.782;9.190;2022-07-04T20:41:55;5.18;;;2.08;;
24631;SDS011;59977;48.782;9.190;2022-07-04T20:44:20;5.57;;;1.95;;
24631;SDS011;59977;48.782;9.190;2022-07-04T20:46:46;5.05;;;1.80;;
24631;SDS011;59977;48.782;9.190;2022-07-04T20:49:12;4.78;;;1.88;;
24631;SDS011;59977;48.782;9.190;2022-07-04T20:51:38;6.05;;;1.95;;
24631;SDS011;59977;48.782;9.190;2022-07-04T20:54:07;4.97;;;1.98;;
24631;SDS011;59977;48.782;9.190;2022-07-04T20:56:33;5.32;;;2.13;;
24631;SDS011;59977;48.782;9.190;2022-07-04T20:58:58;5.32;;;1.90;;
24631;SDS011;59977;48.782;9.190;2022-07-04T21:01:24;6.07;;;1.85;;
24631;SDS011;59977;48.782;9.190;2022-07-04T21:03:50;3.33;;;2.00;;
24631;SDS011;59977;48.782;9.190;2022-07-04T21:06:15;5.80;;;1.98;;
24631;SDS011;59977;48.782;9.190;2022-07-04T21:08:41;3.35;;;1.70;;
24631;SDS011;59977;48.782;9.190;2022-07-04T21:11:06;3.47;;;2.22;;
24631;SDS011;59977;48.782;9.190;2022-07-04T21:13:32;7.18;;;1.80;;
24631;SDS011;59977;48.782;9.190;2022-07-04T21:15:57;3.55;;;1.83;;
24631;SDS011;59977;48.782;9.190;2022-07-04T21:18:23;3.15;;;1.50;;
24631;SDS011;59977;48.782;9.190;2022-07-04T21:20:49;6.38;;;1.60;;
24631;SDS011;59977;48.782;9.190;2022-07-04T21:23:14;5.63;;;1.77;;
24631;SDS011;59977;48.782;9.190;2022-07-04T21:25:40;8.95;;;2.10;;
24631;SDS011;59977;48.782;9.190;2022-07-04T21:28:05;4.47;;;1.70;;
24631;SDS011;59977;48.782;9.190;2022-07-04T21:30:31;6.15;;;1.88;;
24631;SDS011;59977;48.782;9.190;2022-07-04T21:32:57;6.43;;;1.65;;
24631;SDS011;59977;48.782;9.190;2022-07-04T21:35:22;4.35;;;2.00;;
24631;SDS011;59977;48.782;9.190;2022-07-04T21:37:48;4.63;;;1.77;;
24631;SDS011;59977;48.782;9.190;2022-07-04T21:40:14;8.32;;;2.00;;
24631;SDS011;59977;48.782;9.190;2022-07-04T21:42:40;3.75;;;2.00;;
24631;SDS011;59977;48.782;9.190;2022-07-04T21:45:05;4.10;;;1.95;;
24631;SDS011;59977;48.782;9.190;2022-07-04T21:47:32;2.67;;;1.88;;
24631;SDS011;59977;48.782;9.190;2022-07-04T21:49:58;3.58;;;1.63;;
24631;SDS011;59977;48.782;9.190;2022-07-04T21:52:24;4.50;;;1.85;;
24631;SDS011;59977;48.782;9.190;2022-07-04T21:54:49;7.72;;;1.83;;
24631;SDS011;59977;48.782;9.190;2022-07-04T21:57:15;6.43;;;2.33;;
24631;SDS011;59977;48.782;9.190;2022-07-04T21:59:41;3.88;;;2.40;;
24631;SDS011;59977;48.782;9.190;2022-07-04T22:02:06;4.03;;;1.80;;
24631;SDS011;59977;48.782;9.190;2022-07-04T22:04:32;6.88;;;2.40;;
24631;SDS011;59977;48.782;9.190;2022-07-04T22:06:58;11.00;;;2.10;;
24631;SDS011;59977;48.782;9.190;2022-07-04T22:09:24;6.50;;;2.13;;
24631;SDS011;59977;48.782;9.190;2022-07-04T22:11:49;8.18;;;2.60;;
24631;SDS011;59977;48.782;9.190;2022-07-04T22:14:15;6.60;;;2.17;;
24631;SDS011;59977;48.782;9.190;2022-07-04T22:16:40;4.15;;;2.00;;
24631;SDS011;59977;48.782;9.190;2022-07-04T22:19:06;9.75;;;2.03;;
24631;SDS011;59977;48.782;9.190;2022-07-04T22:21:32;7.20;;;2.35;;
24631;SDS011;59977;48.782;9.190;2022-07-04T22:23:58;3.55;;;2.05;;
24631;SDS011;59977;48.782;9.190;2022-07-04T22:26:23;5.93;;;2.15;;
24631;SDS011;59977;48.782;9.190;2022-07-04T22:28:49;5.47;;;2.03;;
24631;SDS011;59977;48.782;9.190;2022-07-04T22:34:37;4.37;;;1.83;;
24631;SDS011;59977;48.782;9.190;2022-07-04T22:37:02;8.63;;;2.00;;
24631;SDS011;59977;48.782;9.190;2022-07-04T22:39:28;3.95;;;1.65;;
24631;SDS011;59977;48.782;9.190;2022-07-04T22:41:53;4.88;;;1.90;;
24631;SDS011;59977;48.782;9.190;2022-07-04T22:44:19;9.20;;;2.08;;
24631;SDS011;59977;48.782;9.190;2022-07-04T22:46:45;3.33;;;2.03;;
24631;SDS011;59977;48.782;9.190;2022-07-04T22:49:11;5.90;;;1.98;;
24631;SDS011;59977;48.782;9.190;2022-07-04T22:51:37;4.75;;;2.08;;
24631;SDS011;59977;48.782;9.190;2022-07-04T22:54:02;10.73;;;2.05;;
24631;SDS011;59977;48.782;9.190;2022-07-04T22:56:47;5.32;;;2.20;;
24631;SDS011;59977;48.782;9.190;2022-07-04T22:59:13;4.10;;;1.90;;
24631;SDS011;59977;48.782;9.190;2022-07-04T23:01:38;6.53;;;1.80;;
24631;SDS011;59977;48.782;9.190;2022-07-04T23:04:04;5.30;;;2.00;;
24631;SDS011;59977;48.782;9.190;2022-07-04T23:06:29;6.53;;;1.90;;
24631;SDS011;59977;48.782;9.190;2022-07-04T23:08:55;6.50;;;1.77;;
24631;SDS011;59977;48.782;9.190;2022-07-04T23:11:21;3.67;;;1.90;;
24631;SDS011;59977;48.782;9.190;2022-07-04T23:13:46;6.45;;;1.98;;
24631;SDS011;59977;48.782;9.190;2022-07-04T23:16:12;8.05;;;2.00;;
24631;SDS011;59977;48.782;9.190;2022-07-04T23:18:38;4.70;;;1.88;;
24631;SDS011;59977;48.782;9.190;2022-07-04T23:21:03;4.90;;;1.63;;
24631;SDS011;59977;48.782;9.190;2022-07-04T23:23:29;7.90;;;1.90;;
24631;SDS011;59977;48.782;9.190;2022-07-04T23:25:55;4.03;;;1.92;;
24631;SDS011;59977;48.782;9.190;2022-07-04T23:28:21;9.40;;;2.40;;
24631;SDS011;59977;48.782;9.190;2022-07-04T23:30:46;4.43;;;2.22;;
24631;SDS011;59977;48.782;9.190;2022-07-04T23:33:12;4.53;;;2.17;;
24631;SDS011;59977;48.782;9.190;2022-07-04T23:35:38;5.47;;;2.72;;
24631;SDS011;59977;48.782;9.190;2022-07-04T23:38:03;4.88;;;2.35;;
24631;SDS011;59977;48.782;9.190;2022-07-04T23:40:29;5.30;;;2.28;;
24631;SDS011;59977;48.782;9.190;2022-07-04T23:42:55;7.15;;;2.40;;
24631;SDS011;59977;48.782;9.190;2022-07-04T23:45:20;13.27;;;2.60;;
24631;SDS011;59977;48.782;9.190;2022-07-04T23:47:46;15.77;;;2.60;;
24631;SDS011;59977;48.782;9.190;2022-07-04T23:50:12;8.27;;;2.08;;
24631;SDS011;59977;48.782;9.190;2022-07-04T23:52:38;5.30;;;2.30;;
24631;SDS011;59977;48.782;9.190;2022-07-04T23:55:03;21.92;;;3.05;;
24631;SDS011;59977;48.782;9.190;2022-07-04T23:57:29;8.43;;;2.28;;
24631;SDS011;59977;48.782;9.190;2022-07-04T23:59:55;7.00;;;2.17;;
